sensor_id;sensor_type;location;lat;lon;timestamp;P1;durP1;ratioP1;P2;durP2;ratioP2
56073;SDS011;41950;55.840;37.442;2023-03-23T00:01:03;4.43;;;2.40;;
56073;SDS011;41950;55.840;37.442;2023-03-23T00:03:29;3.35;;;2.05;;
56073;SDS011;41950;55.840;37.442;2023-03-23T00:05:57;3.28;;;1.95;;
56073;SDS011;41950;55.840;37.442;2023-03-23T00:08:30;3.47;;;1.88;;
56073;SDS011;41950;55.840;37.442;2023-03-23T00:10:58;4.35;;;2.15;;
56073;SDS011;41950;55.840;37.442;2023-03-23T00:13:26;3.67;;;1.90;;
56073;SDS011;41950;55.840;37.442;2023-03-23T00:15:53;3.33;;;1.98;;
56073;SDS011;41950;55.840;37.442;2023-03-23T00:18:19;3.38;;;1.90;;
56073;SDS011;41950;55.840;37.442;2023-03-23T00:20:52;3.53;;;1.98;;
56073;SDS011;41950;55.840;37.442;2023-03-23T00:23:20;3.00;;;1.80;;
56073;SDS011;41950;55.840;37.442;2023-03-23T00:25:48;4.03;;;2.15;;
56073;SDS011;41950;55.840;37.442;2023-03-23T00:28:18;4.35;;;2.10;;
56073;SDS011;41950;55.840;37.442;2023-03-23T00:30:56;3.45;;;1.92;;
56073;SDS011;41950;55.840;37.442;2023-03-23T00:33:23;3.75;;;1.90;;
56073;SDS011;41950;55.840;37.442;2023-03-23T00:35:51;4.03;;;2.00;;
56073;SDS011;41950;55.840;37.442;2023-03-23T00:38:21;4.25;;;2.60;;
56073;SDS011;41950;55.840;37.442;2023-03-23T00:40:48;4.28;;;2.30;;
56073;SDS011;41950;55.840;37.442;2023-03-23T00:43:15;4.15;;;2.10;;
56073;SDS011;41950;55.840;37.442;2023-03-23T00:45:42;3.60;;;1.90;;
56073;SDS011;41950;55.840;37.442;2023-03-23T00:48:11;3.10;;;1.90;;
56073;SDS011;41950;55.840;37.442;2023-03-23T00:50:39;4.32;;;2.17;;
56073;SDS011;41950;55.840;37.442;2023-03-23T00:53:05;3.20;;;1.90;;
56073;SDS011;41950;55.840;37.442;2023-03-23T00:55:31;3.78;;;2.00;;
56073;SDS011;41950;55.840;37.442;2023-03-23T00:57:56;3.08;;;1.83;;
56073;SDS011;41950;55.840;37.442;2023-03-23T01:00:22;3.45;;;1.90;;
56073;SDS011;41950;55.840;37.442;2023-03-23T01:02:48;3.38;;;2.10;;
56073;SDS011;41950;55.840;37.442;2023-03-23T01:05:16;3.40;;;2.00;;
56073;SDS011;41950;55.840;37.442;2023-03-23T01:07:43;3.22;;;1.40;;
56073;SDS011;41950;55.840;37.442;2023-03-23T01:10:09;3.25;;;1.98;;
56073;SDS011;41950;55.840;37.442;2023-03-23T01:12:38;3.50;;;2.05;;
56073;SDS011;41950;55.840;37.442;2023-03-23T01:15:05;4.32;;;1.90;;
56073;SDS011;41950;55.840;37.442;2023-03-23T01:17:31;4.30;;;2.20;;
56073;SDS011;41950;55.840;37.442;2023-03-23T01:19:57;3.28;;;2.00;;
56073;SDS011;41950;55.840;37.442;2023-03-23T01:22:22;3.78;;;2.13;;
56073;SDS011;41950;55.840;37.442;2023-03-23T01:24:48;3.75;;;2.08;;
56073;SDS011;41950;55.840;37.442;2023-03-23T01:27:14;3.80;;;2.42;;
56073;SDS011;41950;55.840;37.442;2023-03-23T01:29:40;4.38;;;2.38;;
56073;SDS011;41950;55.840;37.442;2023-03-23T01:32:05;3.60;;;2.00;;
56073;SDS011;41950;55.840;37.442;2023-03-23T01:34:31;4.45;;;2.38;;
56073;SDS011;41950;55.840;37.442;2023-03-23T01:36:57;4.25;;;2.28;;
56073;SDS011;41950;55.840;37.442;2023-03-23T01:39:22;4.13;;;2.50;;
56073;SDS011;41950;55.840;37.442;2023-03-23T01:41:48;4.97;;;2.65;;
56073;SDS011;41950;55.840;37.442;2023-03-23T01:46:43;3.38;;;2.10;;
56073;SDS011;41950;55.840;37.442;2023-03-23T01:49:13;3.70;;;2.40;;
56073;SDS011;41950;55.840;37.442;2023-03-23T01:51:43;3.83;;;2.40;;
56073;SDS011;41950;55.840;37.442;2023-03-23T01:54:18;3.58;;;2.08;;
56073;SDS011;41950;55.840;37.442;2023-03-23T01:56:56;3.85;;;2.20;;
56073;SDS011;41950;55.840;37.442;2023-03-23T01:59:25;4.05;;;2.20;;
56073;SDS011;41950;55.840;37.442;2023-03-23T02:01:53;3.95;;;2.30;;
56073;SDS011;41950;55.840;37.442;2023-03-23T02:04:20;3.58;;;2.13;;
56073;SDS011;41950;55.840;37.442;2023-03-23T02:06:48;4.70;;;2.70;;
56073;SDS011;41950;55.840;37.442;2023-03-23T02:09:23;3.95;;;2.30;;
56073;SDS011;41950;55.840;37.442;2023-03-23T02:11:51;3.42;;;1.90;;
56073;SDS011;41950;55.840;37.442;2023-03-23T02:14:19;4.97;;;2.70;;
56073;SDS011;41950;55.840;37.442;2023-03-23T02:16:53;4.00;;;2.60;;
56073;SDS011;41950;55.840;37.442;2023-03-23T02:20:16;5.35;;;2.40;;
56073;SDS011;41950;55.840;37.442;2023-03-23T02:22:56;3.35;;;2.00;;
56073;SDS011;41950;55.840;37.442;2023-03-23T02:28:40;4.13;;;2.60;;
56073;SDS011;41950;55.840;37.442;2023-03-23T02:34:27;5.07;;;2.63;;
56073;SDS011;41950;55.840;37.442;2023-03-23T02:37:01;4.47;;;2.67;;
56073;SDS011;41950;55.840;37.442;2023-03-23T02:42:08;5.03;;;3.22;;
56073;SDS011;41950;55.840;37.442;2023-03-23T02:44:36;5.15;;;2.90;;
56073;SDS011;41950;55.840;37.442;2023-03-23T02:47:06;4.85;;;2.80;;
56073;SDS011;41950;55.840;37.442;2023-03-23T02:49:36;5.38;;;2.85;;
56073;SDS011;41950;55.840;37.442;2023-03-23T02:52:08;4.20;;;2.33;;
56073;SDS011;41950;55.840;37.442;2023-03-23T02:54:40;5.47;;;3.25;;
56073;SDS011;41950;55.840;37.442;2023-03-23T02:57:09;4.72;;;2.88;;
56073;SDS011;41950;55.840;37.442;2023-03-23T02:59:36;4.05;;;2.13;;
56073;SDS011;41950;55.840;37.442;2023-03-23T03:04:37;4.03;;;1.77;;
56073;SDS011;41950;55.840;37.442;2023-03-23T03:07:30;2.78;;;1.40;;
56073;SDS011;41950;55.840;37.442;2023-03-23T03:10:23;3.88;;;2.42;;
56073;SDS011;41950;55.840;37.442;2023-03-23T03:15:25;3.90;;;2.15;;
56073;SDS011;41950;55.840;37.442;2023-03-23T03:18:08;4.45;;;2.47;;
56073;SDS011;41950;55.840;37.442;2023-03-23T03:21:04;4.20;;;2.33;;
56073;SDS011;41950;55.840;37.442;2023-03-23T03:23:33;3.83;;;2.35;;
56073;SDS011;41950;55.840;37.442;2023-03-23T03:26:00;4.40;;;2.70;;
56073;SDS011;41950;55.840;37.442;2023-03-23T03:28:30;4.45;;;2.70;;
56073;SDS011;41950;55.840;37.442;2023-03-23T03:30:58;3.95;;;2.53;;
56073;SDS011;41950;55.840;37.442;2023-03-23T03:33:28;5.82;;;3.33;;
56073;SDS011;41950;55.840;37.442;2023-03-23T03:35:57;5.40;;;3.13;;
56073;SDS011;41950;55.840;37.442;2023-03-23T03:38:25;6.95;;;3.42;;
56073;SDS011;41950;55.840;37.442;2023-03-23T03:40:52;5.05;;;3.25;;
56073;SDS011;41950;55.840;37.442;2023-03-23T03:43:18;4.47;;;2.80;;
56073;SDS011;41950;55.840;37.442;2023-03-23T03:45:44;5.55;;;3.65;;
56073;SDS011;41950;55.840;37.442;2023-03-23T03:48:10;4.97;;;3.10;;
56073;SDS011;41950;55.840;37.442;2023-03-23T03:50:37;5.78;;;3.40;;
56073;SDS011;41950;55.840;37.442;2023-03-23T03:53:02;5.57;;;3.10;;
56073;SDS011;41950;55.840;37.442;2023-03-23T03:55:29;5.10;;;2.97;;
56073;SDS011;41950;55.840;37.442;2023-03-23T03:58:00;6.35;;;4.05;;
56073;SDS011;41950;55.840;37.442;2023-03-23T04:00:28;5.45;;;3.10;;
56073;SDS011;41950;55.840;37.442;2023-03-23T04:02:54;5.50;;;3.35;;
56073;SDS011;41950;55.840;37.442;2023-03-23T04:05:20;6.15;;;3.47;;
56073;SDS011;41950;55.840;37.442;2023-03-23T04:07:47;5.45;;;3.33;;
56073;SDS011;41950;55.840;37.442;2023-03-23T04:10:18;5.07;;;3.42;;
56073;SDS011;41950;55.840;37.442;2023-03-23T04:12:47;6.53;;;3.35;;
56073;SDS011;41950;55.840;37.442;2023-03-23T04:15:13;5.88;;;3.78;;
56073;SDS011;41950;55.840;37.442;2023-03-23T04:17:39;6.05;;;3.72;;
56073;SDS011;41950;55.840;37.442;2023-03-23T04:20:06;5.18;;;3.33;;
56073;SDS011;41950;55.840;37.442;2023-03-23T04:22:43;6.38;;;3.40;;
56073;SDS011;41950;55.840;37.442;2023-03-23T04:25:11;5.10;;;3.63;;
56073;SDS011;41950;55.840;37.442;2023-03-23T04:27:38;6.50;;;3.90;;
56073;SDS011;41950;55.840;37.442;2023-03-23T04:30:04;9.00;;;4.40;;
56073;SDS011;41950;55.840;37.442;2023-03-23T04:32:31;6.50;;;3.97;;
56073;SDS011;41950;55.840;37.442;2023-03-23T04:34:57;6.57;;;3.88;;
56073;SDS011;41950;55.840;37.442;2023-03-23T04:37:28;7.13;;;4.10;;
56073;SDS011;41950;55.840;37.442;2023-03-23T04:39:59;6.78;;;4.18;;
56073;SDS011;41950;55.840;37.442;2023-03-23T04:42:27;5.75;;;3.58;;
56073;SDS011;41950;55.840;37.442;2023-03-23T04:44:54;5.93;;;3.58;;
56073;SDS011;41950;55.840;37.442;2023-03-23T04:47:20;5.60;;;3.42;;
56073;SDS011;41950;55.840;37.442;2023-03-23T04:49:46;5.68;;;3.60;;
56073;SDS011;41950;55.840;37.442;2023-03-23T04:52:12;5.72;;;3.83;;
56073;SDS011;41950;55.840;37.442;2023-03-23T04:54:39;6.53;;;3.58;;
56073;SDS011;41950;55.840;37.442;2023-03-23T04:57:05;6.35;;;3.80;;
56073;SDS011;41950;55.840;37.442;2023-03-23T04:59:33;6.93;;;4.10;;
56073;SDS011;41950;55.840;37.442;2023-03-23T05:01:59;7.15;;;4.10;;
56073;SDS011;41950;55.840;37.442;2023-03-23T05:04:25;7.05;;;4.30;;
56073;SDS011;41950;55.840;37.442;2023-03-23T05:06:51;3.97;;;2.35;;
56073;SDS011;41950;55.840;37.442;2023-03-23T05:09:17;6.18;;;3.92;;
56073;SDS011;41950;55.840;37.442;2023-03-23T05:11:46;5.00;;;2.92;;
56073;SDS011;41950;55.840;37.442;2023-03-23T05:14:12;7.20;;;4.28;;
56073;SDS011;41950;55.840;37.442;2023-03-23T05:16:37;6.78;;;3.40;;
56073;SDS011;41950;55.840;37.442;2023-03-23T05:19:04;5.57;;;4.07;;
56073;SDS011;41950;55.840;37.442;2023-03-23T05:21:53;6.32;;;4.50;;
56073;SDS011;41950;55.840;37.442;2023-03-23T05:24:21;6.70;;;4.40;;
56073;SDS011;41950;55.840;37.442;2023-03-23T05:26:49;7.50;;;4.82;;
56073;SDS011;41950;55.840;37.442;2023-03-23T05:29:17;6.43;;;3.97;;
56073;SDS011;41950;55.840;37.442;2023-03-23T05:31:44;6.47;;;4.68;;
56073;SDS011;41950;55.840;37.442;2023-03-23T05:34:11;8.20;;;5.18;;
56073;SDS011;41950;55.840;37.442;2023-03-23T05:36:42;7.30;;;4.25;;
56073;SDS011;41950;55.840;37.442;2023-03-23T05:39:09;8.00;;;4.80;;
56073;SDS011;41950;55.840;37.442;2023-03-23T05:41:36;8.57;;;4.70;;
56073;SDS011;41950;55.840;37.442;2023-03-23T05:44:02;7.20;;;4.72;;
56073;SDS011;41950;55.840;37.442;2023-03-23T05:46:28;8.43;;;4.68;;
56073;SDS011;41950;55.840;37.442;2023-03-23T05:48:54;7.28;;;4.78;;
56073;SDS011;41950;55.840;37.442;2023-03-23T05:51:20;7.72;;;4.68;;
56073;SDS011;41950;55.840;37.442;2023-03-23T05:53:46;7.78;;;5.10;;
56073;SDS011;41950;55.840;37.442;2023-03-23T05:56:13;7.40;;;5.05;;
56073;SDS011;41950;55.840;37.442;2023-03-23T05:58:39;7.57;;;4.80;;
56073;SDS011;41950;55.840;37.442;2023-03-23T06:01:08;8.35;;;5.50;;
56073;SDS011;41950;55.840;37.442;2023-03-23T06:03:34;7.70;;;4.60;;
56073;SDS011;41950;55.840;37.442;2023-03-23T06:06:04;8.23;;;5.35;;
56073;SDS011;41950;55.840;37.442;2023-03-23T06:08:30;9.23;;;5.35;;
56073;SDS011;41950;55.840;37.442;2023-03-23T06:10:56;7.43;;;4.88;;
56073;SDS011;41950;55.840;37.442;2023-03-23T06:13:22;8.80;;;5.15;;
56073;SDS011;41950;55.840;37.442;2023-03-23T06:15:48;8.20;;;4.35;;
56073;SDS011;41950;55.840;37.442;2023-03-23T06:18:15;8.57;;;4.85;;
56073;SDS011;41950;55.840;37.442;2023-03-23T06:20:41;8.65;;;5.85;;
56073;SDS011;41950;55.840;37.442;2023-03-23T06:23:09;8.05;;;5.30;;
56073;SDS011;41950;55.840;37.442;2023-03-23T06:25:35;6.72;;;4.63;;
56073;SDS011;41950;55.840;37.442;2023-03-23T06:28:00;7.80;;;5.82;;
56073;SDS011;41950;55.840;37.442;2023-03-23T06:30:26;7.72;;;5.93;;
56073;SDS011;41950;55.840;37.442;2023-03-23T06:32:55;7.40;;;5.32;;
56073;SDS011;41950;55.840;37.442;2023-03-23T06:35:22;8.27;;;5.53;;
56073;SDS011;41950;55.840;37.442;2023-03-23T06:37:47;9.93;;;6.00;;
56073;SDS011;41950;55.840;37.442;2023-03-23T06:40:13;9.88;;;5.88;;
56073;SDS011;41950;55.840;37.442;2023-03-23T06:42:39;7.55;;;6.13;;
56073;SDS011;41950;55.840;37.442;2023-03-23T06:45:05;7.75;;;5.75;;
56073;SDS011;41950;55.840;37.442;2023-03-23T06:47:32;7.75;;;5.65;;
56073;SDS011;41950;55.840;37.442;2023-03-23T06:49:58;7.93;;;5.72;;
56073;SDS011;41950;55.840;37.442;2023-03-23T06:52:25;7.38;;;5.32;;
56073;SDS011;41950;55.840;37.442;2023-03-23T06:54:51;8.48;;;5.97;;
56073;SDS011;41950;55.840;37.442;2023-03-23T06:57:18;8.23;;;5.78;;
56073;SDS011;41950;55.840;37.442;2023-03-23T06:59:46;7.00;;;5.18;;
56073;SDS011;41950;55.840;37.442;2023-03-23T07:02:13;6.47;;;3.90;;
56073;SDS011;41950;55.840;37.442;2023-03-23T07:04:39;6.20;;;5.13;;
56073;SDS011;41950;55.840;37.442;2023-03-23T07:07:07;7.25;;;5.25;;
56073;SDS011;41950;55.840;37.442;2023-03-23T07:09:34;8.27;;;5.68;;
56073;SDS011;41950;55.840;37.442;2023-03-23T07:11:59;7.80;;;5.18;;
56073;SDS011;41950;55.840;37.442;2023-03-23T07:14:26;7.40;;;4.18;;
56073;SDS011;41950;55.840;37.442;2023-03-23T07:16:52;7.55;;;5.20;;
56073;SDS011;41950;55.840;37.442;2023-03-23T07:19:18;9.27;;;5.22;;
56073;SDS011;41950;55.840;37.442;2023-03-23T07:21:44;8.05;;;5.30;;
56073;SDS011;41950;55.840;37.442;2023-03-23T07:24:13;9.65;;;5.78;;
56073;SDS011;41950;55.840;37.442;2023-03-23T07:26:40;7.60;;;5.25;;
56073;SDS011;41950;55.840;37.442;2023-03-23T07:29:07;9.82;;;4.72;;
56073;SDS011;41950;55.840;37.442;2023-03-23T07:31:33;7.93;;;5.13;;
56073;SDS011;41950;55.840;37.442;2023-03-23T07:33:59;8.63;;;5.03;;
56073;SDS011;41950;55.840;37.442;2023-03-23T07:36:25;7.57;;;5.70;;
56073;SDS011;41950;55.840;37.442;2023-03-23T07:38:52;6.47;;;4.78;;
56073;SDS011;41950;55.840;37.442;2023-03-23T07:41:18;6.68;;;4.95;;
56073;SDS011;41950;55.840;37.442;2023-03-23T07:43:44;8.98;;;5.05;;
56073;SDS011;41950;55.840;37.442;2023-03-23T07:46:11;6.28;;;4.90;;
56073;SDS011;41950;55.840;37.442;2023-03-23T07:48:38;6.32;;;5.13;;
56073;SDS011;41950;55.840;37.442;2023-03-23T07:51:04;7.32;;;5.53;;
56073;SDS011;41950;55.840;37.442;2023-03-23T07:53:32;7.03;;;4.18;;
56073;SDS011;41950;55.840;37.442;2023-03-23T07:55:58;7.57;;;4.82;;
56073;SDS011;41950;55.840;37.442;2023-03-23T07:58:24;5.28;;;3.75;;
56073;SDS011;41950;55.840;37.442;2023-03-23T08:00:51;7.82;;;5.03;;
56073;SDS011;41950;55.840;37.442;2023-03-23T08:03:18;6.60;;;4.75;;
56073;SDS011;41950;55.840;37.442;2023-03-23T08:05:43;7.55;;;4.80;;
56073;SDS011;41950;55.840;37.442;2023-03-23T08:08:09;6.28;;;3.20;;
56073;SDS011;41950;55.840;37.442;2023-03-23T08:10:35;6.47;;;4.82;;
56073;SDS011;41950;55.840;37.442;2023-03-23T08:13:01;5.63;;;3.90;;
56073;SDS011;41950;55.840;37.442;2023-03-23T08:15:28;6.90;;;3.58;;
56073;SDS011;41950;55.840;37.442;2023-03-23T08:17:53;8.75;;;5.55;;
56073;SDS011;41950;55.840;37.442;2023-03-23T08:20:20;6.78;;;5.00;;
56073;SDS011;41950;55.840;37.442;2023-03-23T08:22:54;7.32;;;5.38;;
56073;SDS011;41950;55.840;37.442;2023-03-23T08:25:21;7.88;;;5.40;;
56073;SDS011;41950;55.840;37.442;2023-03-23T08:27:47;6.75;;;5.18;;
56073;SDS011;41950;55.840;37.442;2023-03-23T08:30:17;6.78;;;5.00;;
56073;SDS011;41950;55.840;37.442;2023-03-23T08:32:47;6.20;;;4.68;;
56073;SDS011;41950;55.840;37.442;2023-03-23T08:35:15;6.05;;;4.25;;
56073;SDS011;41950;55.840;37.442;2023-03-23T08:37:41;8.50;;;5.63;;
56073;SDS011;41950;55.840;37.442;2023-03-23T08:40:07;5.88;;;4.10;;
56073;SDS011;41950;55.840;37.442;2023-03-23T08:42:38;8.02;;;5.07;;
56073;SDS011;41950;55.840;37.442;2023-03-23T08:45:05;5.70;;;3.70;;
56073;SDS011;41950;55.840;37.442;2023-03-23T08:47:32;7.93;;;5.00;;
56073;SDS011;41950;55.840;37.442;2023-03-23T08:49:59;6.20;;;4.50;;
56073;SDS011;41950;55.840;37.442;2023-03-23T08:52:25;8.50;;;4.72;;
56073;SDS011;41950;55.840;37.442;2023-03-23T08:54:50;8.65;;;4.80;;
56073;SDS011;41950;55.840;37.442;2023-03-23T08:57:16;7.13;;;4.10;;
56073;SDS011;41950;55.840;37.442;2023-03-23T08:59:43;5.93;;;4.65;;
56073;SDS011;41950;55.840;37.442;2023-03-23T09:02:10;8.40;;;4.80;;
56073;SDS011;41950;55.840;37.442;2023-03-23T09:04:37;6.20;;;4.57;;
56073;SDS011;41950;55.840;37.442;2023-03-23T09:07:04;7.25;;;5.00;;
56073;SDS011;41950;55.840;37.442;2023-03-23T09:09:31;7.45;;;5.15;;
56073;SDS011;41950;55.840;37.442;2023-03-23T09:11:57;6.10;;;4.57;;
56073;SDS011;41950;55.840;37.442;2023-03-23T09:14:23;6.47;;;4.82;;
56073;SDS011;41950;55.840;37.442;2023-03-23T09:16:48;7.32;;;5.10;;
56073;SDS011;41950;55.840;37.442;2023-03-23T09:19:16;5.82;;;4.20;;
56073;SDS011;41950;55.840;37.442;2023-03-23T09:21:42;5.53;;;4.13;;
56073;SDS011;41950;55.840;37.442;2023-03-23T09:24:07;5.82;;;4.43;;
56073;SDS011;41950;55.840;37.442;2023-03-23T09:26:34;6.47;;;4.80;;
56073;SDS011;41950;55.840;37.442;2023-03-23T09:29:00;6.30;;;4.20;;
56073;SDS011;41950;55.840;37.442;2023-03-23T09:31:25;5.82;;;4.60;;
56073;SDS011;41950;55.840;37.442;2023-03-23T09:33:53;4.72;;;3.88;;
56073;SDS011;41950;55.840;37.442;2023-03-23T09:36:22;7.57;;;4.82;;
56073;SDS011;41950;55.840;37.442;2023-03-23T09:38:51;6.78;;;4.10;;
56073;SDS011;41950;55.840;37.442;2023-03-23T09:46:51;6.50;;;4.57;;
56073;SDS011;41950;55.840;37.442;2023-03-23T09:52:12;8.30;;;4.88;;
56073;SDS011;41950;55.840;37.442;2023-03-23T09:54:41;5.95;;;4.50;;
56073;SDS011;41950;55.840;37.442;2023-03-23T09:57:55;6.85;;;4.22;;
56073;SDS011;41950;55.840;37.442;2023-03-23T10:00:13;8.45;;;4.20;;
56073;SDS011;41950;55.840;37.442;2023-03-23T10:05:41;6.15;;;4.30;;
56073;SDS011;41950;55.840;37.442;2023-03-23T10:08:20;8.23;;;4.28;;
56073;SDS011;41950;55.840;37.442;2023-03-23T10:16:30;7.30;;;4.40;;
56073;SDS011;41950;55.840;37.442;2023-03-23T10:21:52;5.80;;;3.88;;
56073;SDS011;41950;55.840;37.442;2023-03-23T10:29:58;6.68;;;2.88;;
56073;SDS011;41950;55.840;37.442;2023-03-23T10:32:39;5.00;;;3.53;;
56073;SDS011;41950;55.840;37.442;2023-03-23T10:35:28;4.60;;;3.30;;
56073;SDS011;41950;55.840;37.442;2023-03-23T10:38:00;8.32;;;3.60;;
56073;SDS011;41950;55.840;37.442;2023-03-23T10:40:30;5.13;;;3.55;;
56073;SDS011;41950;55.840;37.442;2023-03-23T10:42:58;6.25;;;3.72;;
56073;SDS011;41950;55.840;37.442;2023-03-23T10:45:29;4.95;;;3.78;;
56073;SDS011;41950;55.840;37.442;2023-03-23T10:48:04;4.95;;;3.67;;
56073;SDS011;41950;55.840;37.442;2023-03-23T10:51:15;5.75;;;3.40;;
56073;SDS011;41950;55.840;37.442;2023-03-23T10:53:45;4.82;;;3.35;;
56073;SDS011;41950;55.840;37.442;2023-03-23T10:56:21;5.80;;;3.30;;
56073;SDS011;41950;55.840;37.442;2023-03-23T10:58:52;3.75;;;2.25;;
56073;SDS011;41950;55.840;37.442;2023-03-23T11:01:27;4.53;;;2.65;;
56073;SDS011;41950;55.840;37.442;2023-03-23T11:03:56;5.20;;;3.13;;
56073;SDS011;41950;55.840;37.442;2023-03-23T11:06:26;4.00;;;2.80;;
56073;SDS011;41950;55.840;37.442;2023-03-23T11:08:58;4.78;;;3.10;;
56073;SDS011;41950;55.840;37.442;2023-03-23T11:11:29;4.97;;;3.20;;
56073;SDS011;41950;55.840;37.442;2023-03-23T11:14:00;3.83;;;2.72;;
56073;SDS011;41950;55.840;37.442;2023-03-23T11:16:45;4.57;;;3.20;;
56073;SDS011;41950;55.840;37.442;2023-03-23T11:19:27;4.32;;;2.78;;
56073;SDS011;41950;55.840;37.442;2023-03-23T11:22:05;4.70;;;2.85;;
56073;SDS011;41950;55.840;37.442;2023-03-23T11:24:34;4.13;;;3.00;;
56073;SDS011;41950;55.840;37.442;2023-03-23T11:27:02;5.75;;;3.30;;
56073;SDS011;41950;55.840;37.442;2023-03-23T11:29:32;5.95;;;3.10;;
56073;SDS011;41950;55.840;37.442;2023-03-23T11:37:07;4.25;;;3.00;;
56073;SDS011;41950;55.840;37.442;2023-03-23T11:39:48;4.82;;;3.00;;
56073;SDS011;41950;55.840;37.442;2023-03-23T11:42:23;5.75;;;3.03;;
56073;SDS011;41950;55.840;37.442;2023-03-23T11:45:05;5.45;;;3.17;;
56073;SDS011;41950;55.840;37.442;2023-03-23T11:47:40;4.25;;;2.50;;
56073;SDS011;41950;55.840;37.442;2023-03-23T11:56:00;4.03;;;2.40;;
56073;SDS011;41950;55.840;37.442;2023-03-23T11:58:36;4.68;;;2.67;;
56073;SDS011;41950;55.840;37.442;2023-03-23T12:01:18;4.63;;;3.10;;
56073;SDS011;41950;55.840;37.442;2023-03-23T12:03:59;4.60;;;2.90;;
56073;SDS011;41950;55.840;37.442;2023-03-23T12:12:16;4.85;;;2.80;;
56073;SDS011;41950;55.840;37.442;2023-03-23T12:14:57;5.32;;;3.00;;
56073;SDS011;41950;55.840;37.442;2023-03-23T12:20:44;5.80;;;2.85;;
56073;SDS011;41950;55.840;37.442;2023-03-23T12:23:18;4.88;;;2.70;;
56073;SDS011;41950;55.840;37.442;2023-03-23T12:26:07;4.97;;;3.00;;
56073;SDS011;41950;55.840;37.442;2023-03-23T12:34:58;4.93;;;3.13;;
56073;SDS011;41950;55.840;37.442;2023-03-23T12:40:26;4.25;;;2.70;;
56073;SDS011;41950;55.840;37.442;2023-03-23T12:43:15;4.07;;;2.70;;
56073;SDS011;41950;55.840;37.442;2023-03-23T12:46:08;5.50;;;2.92;;
56073;SDS011;41950;55.840;37.442;2023-03-23T12:54:38;4.35;;;2.90;;
56073;SDS011;41950;55.840;37.442;2023-03-23T12:57:18;4.90;;;2.70;;
56073;SDS011;41950;55.840;37.442;2023-03-23T13:00:33;4.00;;;2.70;;
56073;SDS011;41950;55.840;37.442;2023-03-23T13:05:53;4.40;;;2.95;;
56073;SDS011;41950;55.840;37.442;2023-03-23T13:11:20;4.90;;;2.40;;
56073;SDS011;41950;55.840;37.442;2023-03-23T13:13:54;4.40;;;2.58;;
56073;SDS011;41950;55.840;37.442;2023-03-23T13:24:35;4.75;;;2.72;;
56073;SDS011;41950;55.840;37.442;2023-03-23T13:27:06;5.63;;;3.00;;
56073;SDS011;41950;55.840;37.442;2023-03-23T13:29:43;5.68;;;2.92;;
56073;SDS011;41950;55.840;37.442;2023-03-23T13:32:17;5.25;;;2.97;;
56073;SDS011;41950;55.840;37.442;2023-03-23T13:34:45;4.07;;;2.92;;
56073;SDS011;41950;55.840;37.442;2023-03-23T13:39:53;5.43;;;2.92;;
56073;SDS011;41950;55.840;37.442;2023-03-23T13:42:25;3.90;;;2.72;;
56073;SDS011;41950;55.840;37.442;2023-03-23T13:44:56;5.13;;;2.92;;
56073;SDS011;41950;55.840;37.442;2023-03-23T13:47:43;5.80;;;3.20;;
56073;SDS011;41950;55.840;37.442;2023-03-23T13:55:17;7.20;;;3.10;;
56073;SDS011;41950;55.840;37.442;2023-03-23T14:05:59;5.90;;;3.53;;
56073;SDS011;41950;55.840;37.442;2023-03-23T14:11:09;5.25;;;3.53;;
56073;SDS011;41950;55.840;37.442;2023-03-23T14:16:16;6.15;;;3.50;;
56073;SDS011;41950;55.840;37.442;2023-03-23T14:18:50;5.60;;;2.63;;
56073;SDS011;41950;55.840;37.442;2023-03-23T14:21:22;4.75;;;3.15;;
56073;SDS011;41950;55.840;37.442;2023-03-23T14:23:55;4.22;;;2.60;;
56073;SDS011;41950;55.840;37.442;2023-03-23T14:26:24;6.97;;;3.75;;
56073;SDS011;41950;55.840;37.442;2023-03-23T14:28:50;4.35;;;2.50;;
56073;SDS011;41950;55.840;37.442;2023-03-23T14:31:22;5.78;;;3.20;;
56073;SDS011;41950;55.840;37.442;2023-03-23T14:33:50;4.78;;;3.25;;
56073;SDS011;41950;55.840;37.442;2023-03-23T14:39:13;8.43;;;3.38;;
56073;SDS011;41950;55.840;37.442;2023-03-23T14:41:42;4.40;;;3.33;;
56073;SDS011;41950;55.840;37.442;2023-03-23T14:44:12;5.18;;;2.95;;
56073;SDS011;41950;55.840;37.442;2023-03-23T14:46:41;6.35;;;3.00;;
56073;SDS011;41950;55.840;37.442;2023-03-23T14:49:10;6.30;;;3.17;;
56073;SDS011;41950;55.840;37.442;2023-03-23T14:51:52;6.22;;;3.60;;
56073;SDS011;41950;55.840;37.442;2023-03-23T14:54:26;4.75;;;3.47;;
56073;SDS011;41950;55.840;37.442;2023-03-23T14:56:53;5.50;;;3.53;;
56073;SDS011;41950;55.840;37.442;2023-03-23T14:59:20;4.93;;;3.35;;
56073;SDS011;41950;55.840;37.442;2023-03-23T15:01:47;7.78;;;3.08;;
56073;SDS011;41950;55.840;37.442;2023-03-23T15:04:22;6.10;;;3.40;;
56073;SDS011;41950;55.840;37.442;2023-03-23T15:06:59;7.03;;;3.42;;
56073;SDS011;41950;55.840;37.442;2023-03-23T15:09:27;5.63;;;3.63;;
56073;SDS011;41950;55.840;37.442;2023-03-23T15:11:57;7.07;;;3.70;;
56073;SDS011;41950;55.840;37.442;2023-03-23T15:14:27;5.93;;;4.00;;
56073;SDS011;41950;55.840;37.442;2023-03-23T15:17:02;6.32;;;3.63;;
56073;SDS011;41950;55.840;37.442;2023-03-23T15:19:32;7.25;;;3.78;;
56073;SDS011;41950;55.840;37.442;2023-03-23T15:24:52;7.13;;;3.50;;
56073;SDS011;41950;55.840;37.442;2023-03-23T15:27:30;7.55;;;3.70;;
56073;SDS011;41950;55.840;37.442;2023-03-23T15:30:45;8.07;;;3.70;;
56073;SDS011;41950;55.840;37.442;2023-03-23T15:32:52;5.00;;;3.40;;
56073;SDS011;41950;55.840;37.442;2023-03-23T15:35:22;5.45;;;3.08;;
56073;SDS011;41950;55.840;37.442;2023-03-23T15:38:01;5.10;;;3.63;;
56073;SDS011;41950;55.840;37.442;2023-03-23T15:40:32;6.05;;;3.70;;
56073;SDS011;41950;55.840;37.442;2023-03-23T15:45:54;6.65;;;4.05;;
56073;SDS011;41950;55.840;37.442;2023-03-23T15:51:30;5.72;;;3.60;;
56073;SDS011;41950;55.840;37.442;2023-03-23T15:53:58;6.43;;;4.07;;
56073;SDS011;41950;55.840;37.442;2023-03-23T15:56:24;6.13;;;3.47;;
56073;SDS011;41950;55.840;37.442;2023-03-23T15:58:51;5.60;;;3.60;;
56073;SDS011;41950;55.840;37.442;2023-03-23T16:01:21;5.53;;;3.50;;
56073;SDS011;41950;55.840;37.442;2023-03-23T16:06:18;6.13;;;3.72;;
56073;SDS011;41950;55.840;37.442;2023-03-23T16:08:45;6.65;;;3.35;;
56073;SDS011;41950;55.840;37.442;2023-03-23T16:11:15;4.97;;;3.33;;
56073;SDS011;41950;55.840;37.442;2023-03-23T16:13:43;5.88;;;4.20;;
56073;SDS011;41950;55.840;37.442;2023-03-23T16:16:22;6.20;;;3.92;;
56073;SDS011;41950;55.840;37.442;2023-03-23T16:18:51;6.95;;;4.20;;
56073;SDS011;41950;55.840;37.442;2023-03-23T16:21:18;5.78;;;3.90;;
56073;SDS011;41950;55.840;37.442;2023-03-23T16:23:44;6.63;;;4.00;;
56073;SDS011;41950;55.840;37.442;2023-03-23T16:26:11;5.78;;;3.65;;
56073;SDS011;41950;55.840;37.442;2023-03-23T16:28:38;8.23;;;3.95;;
56073;SDS011;41950;55.840;37.442;2023-03-23T16:31:05;5.88;;;4.10;;
56073;SDS011;41950;55.840;37.442;2023-03-23T16:33:31;6.70;;;4.30;;
56073;SDS011;41950;55.840;37.442;2023-03-23T16:35:56;5.05;;;3.72;;
56073;SDS011;41950;55.840;37.442;2023-03-23T16:38:22;5.47;;;4.03;;
56073;SDS011;41950;55.840;37.442;2023-03-23T16:40:49;6.65;;;4.10;;
56073;SDS011;41950;55.840;37.442;2023-03-23T16:43:15;6.03;;;4.18;;
56073;SDS011;41950;55.840;37.442;2023-03-23T16:45:43;5.55;;;3.83;;
56073;SDS011;41950;55.840;37.442;2023-03-23T16:48:10;6.22;;;3.97;;
56073;SDS011;41950;55.840;37.442;2023-03-23T16:50:37;5.68;;;4.00;;
56073;SDS011;41950;55.840;37.442;2023-03-23T16:53:04;7.45;;;3.90;;
56073;SDS011;41950;55.840;37.442;2023-03-23T16:55:32;6.55;;;3.97;;